createdAt,value
2019-03-09T00:04:59.896Z,1004.52
2019-03-09T00:11:00.053Z,1004.46
2019-03-09T00:16:59.910Z,1004.44
2019-03-09T00:22:59.897Z,1004.46
2019-03-09T00:28:59.864Z,1004.58
2019-03-09T00:35:00.008Z,1004.58
2019-03-09T00:40:59.899Z,1004.48
2019-03-09T00:46:59.907Z,1004.42
2019-03-09T00:53:00.024Z,1004.37
2019-03-09T00:58:59.942Z,1004.36
2019-03-09T01:04:59.978Z,1004.31
2019-03-09T01:10:59.907Z,1004.15
2019-03-09T01:16:59.957Z,1004.00
2019-03-09T01:22:59.961Z,1003.76
2019-03-09T01:28:59.959Z,1003.59
2019-03-09T01:34:59.950Z,1003.58
2019-03-09T01:41:00.076Z,1003.55
2019-03-09T01:46:59.985Z,1003.43
2019-03-09T01:53:00.022Z,1003.38
2019-03-09T01:58:59.953Z,1003.27
2019-03-09T02:04:59.920Z,1003.09
2019-03-09T02:10:59.988Z,1003.14
2019-03-09T02:16:59.948Z,1003.00
2019-03-09T02:22:59.950Z,1002.89
2019-03-09T02:29:01.129Z,1003.02
2019-03-09T02:35:00.036Z,1002.87
2019-03-09T02:41:00.082Z,1002.69
2019-03-09T02:47:00.001Z,1002.63
2019-03-09T02:53:00.001Z,1002.67
2019-03-09T02:58:59.999Z,1002.61
2019-03-09T03:05:00.066Z,1002.45
2019-03-09T03:11:00.017Z,1002.49
2019-03-09T03:17:00.035Z,1002.47
2019-03-09T03:22:59.996Z,1002.20
2019-03-09T03:29:00.049Z,1002.08
2019-03-09T03:35:00.006Z,1002.15
2019-03-09T03:41:00.016Z,1002.20
2019-03-09T03:47:00.149Z,1002.32
2019-03-09T03:53:00.089Z,1002.34
2019-03-09T03:59:00.056Z,1002.39
2019-03-09T04:05:00.117Z,1002.37
2019-03-09T04:11:00.022Z,1002.51
2019-03-09T04:17:00.076Z,1002.65
2019-03-09T04:23:00.078Z,1002.62
2019-03-09T04:29:00.067Z,1002.78
2019-03-09T04:35:00.386Z,1002.87
2019-03-09T04:41:00.134Z,1003.00
2019-03-09T04:47:00.068Z,1003.03
2019-03-09T04:53:00.064Z,1002.99
2019-03-09T04:59:00.092Z,1003.15
2019-03-09T05:05:00.204Z,1003.11
2019-03-09T05:11:00.061Z,1003.27
2019-03-09T05:17:00.083Z,1003.31
2019-03-09T05:23:00.094Z,1003.33
2019-03-09T05:29:00.077Z,1003.35
2019-03-09T05:35:00.083Z,1003.39
2019-03-09T05:41:00.082Z,1003.50
2019-03-09T05:47:00.153Z,1003.52
2019-03-09T05:53:00.215Z,1003.57
2019-03-09T05:59:00.146Z,1003.56
2019-03-09T06:05:00.233Z,1003.23
2019-03-09T06:11:00.147Z,1003.39
2019-03-09T06:17:00.130Z,1003.52
2019-03-09T06:23:00.117Z,1003.77
2019-03-09T06:29:00.156Z,1003.89
2019-03-09T06:35:00.311Z,1003.95
2019-03-09T06:41:03.104Z,1004.04
2019-03-09T06:47:00.112Z,1004.10
2019-03-09T06:53:00.181Z,1004.08
2019-03-09T06:59:00.127Z,1004.14
2019-03-09T07:05:00.158Z,1004.29
2019-03-09T07:11:00.114Z,1004.39
2019-03-09T07:17:00.131Z,1004.45
2019-03-09T07:23:00.155Z,1004.41
2019-03-09T07:29:00.133Z,1004.40
2019-03-09T07:35:00.152Z,1004.21
2019-03-09T07:41:00.157Z,1004.21
2019-03-09T07:47:00.162Z,1004.00
2019-03-09T07:53:00.171Z,1003.99
2019-03-09T07:59:00.165Z,1004.10
2019-03-09T08:05:00.347Z,1004.24
2019-03-09T08:11:00.175Z,1004.35
2019-03-09T08:17:00.193Z,1004.19
2019-03-09T08:23:00.178Z,1004.41
2019-03-09T08:29:00.226Z,1004.60
2019-03-09T08:35:00.376Z,1004.49
2019-03-09T08:41:00.252Z,1004.68
2019-03-09T08:47:00.220Z,1004.72
2019-03-09T08:53:00.250Z,1004.62
2019-03-09T08:59:00.218Z,1004.60
2019-03-09T09:05:00.329Z,1004.47
2019-03-09T09:11:00.483Z,1004.53
2019-03-09T09:17:00.251Z,1004.73
2019-03-09T09:23:01.387Z,1004.93
2019-03-09T09:29:01.290Z,1004.82
2019-03-09T09:35:00.252Z,1004.87
2019-03-09T09:41:00.275Z,1005.00
2019-03-09T09:47:00.330Z,1005.20
2019-03-09T09:53:01.358Z,1005.02
2019-03-09T09:59:00.307Z,1005.00
2019-03-09T10:05:00.302Z,1005.09
2019-03-09T10:11:00.261Z,1004.89
2019-03-09T10:17:00.296Z,1004.88
2019-03-09T10:23:04.699Z,1005.21
2019-03-09T10:29:00.315Z,1005.00
2019-03-09T10:35:00.360Z,1004.97
2019-03-09T10:44:43.409Z,1005.19
2019-03-09T10:50:43.408Z,1005.30
2019-03-09T10:56:43.457Z,1005.42
2019-03-09T11:02:43.407Z,1005.23
2019-03-09T11:08:43.433Z,1005.27
2019-03-09T11:14:43.492Z,1005.02
2019-03-09T11:20:43.458Z,1004.98
2019-03-09T11:26:43.419Z,1005.09
2019-03-09T11:32:43.443Z,1005.19
2019-03-09T11:38:43.469Z,1005.21
2019-03-09T11:44:43.461Z,1005.24
2019-03-09T11:50:43.505Z,1005.06
2019-03-09T11:56:43.811Z,1005.19
2019-03-09T12:02:43.760Z,1005.14
2019-03-09T12:08:43.508Z,1004.90
2019-03-09T12:14:43.834Z,1004.95
2019-03-09T12:20:43.772Z,1004.86
2019-03-09T12:26:43.493Z,1004.69
2019-03-09T12:32:43.502Z,1004.81
2019-03-09T12:38:43.831Z,1004.60
2019-03-09T12:44:43.744Z,1004.45
2019-03-09T12:50:43.646Z,1004.27
2019-03-09T12:56:43.911Z,1004.40
2019-03-09T13:02:43.545Z,1004.24
2019-03-09T13:08:43.618Z,1004.02
2019-03-09T13:14:43.531Z,1003.76
2019-03-09T13:20:43.947Z,1003.56
2019-03-09T13:26:43.848Z,1003.18
2019-03-09T13:32:43.760Z,1003.17
2019-03-09T13:38:44.544Z,1003.25
2019-03-09T13:44:43.823Z,1003.07
2019-03-09T13:50:44.366Z,1002.35
2019-03-09T13:56:43.546Z,1002.88
2019-03-09T14:02:43.922Z,1002.74
2019-03-09T14:08:43.572Z,1002.81
2019-03-09T14:14:43.574Z,1002.78
2019-03-09T14:20:43.817Z,1002.72
2019-03-09T14:26:43.751Z,1002.62
2019-03-09T14:32:43.804Z,1002.63
2019-03-09T14:38:43.840Z,1002.85
2019-03-09T14:44:44.612Z,1002.66
2019-03-09T14:50:43.827Z,1002.41
2019-03-09T14:56:43.605Z,1002.30
2019-03-09T15:02:43.596Z,1002.42
2019-03-09T15:08:43.763Z,1002.37
2019-03-09T15:14:43.798Z,1002.53
2019-03-09T15:20:43.816Z,1002.67
2019-03-09T15:26:43.774Z,1002.66
2019-03-09T15:32:43.632Z,1002.69
2019-03-09T15:38:43.638Z,1002.57
2019-03-09T15:44:43.807Z,1002.38
2019-03-09T15:50:43.845Z,1002.31
2019-03-09T15:56:43.786Z,1002.14
2019-03-09T16:02:45.251Z,1002.12
2019-03-09T16:08:43.653Z,1002.17
2019-03-09T16:14:43.820Z,1002.38
2019-03-09T16:20:43.740Z,1002.65
2019-03-09T16:26:43.667Z,1002.59
2019-03-09T16:32:43.870Z,1002.70
2019-03-09T16:38:43.782Z,1002.54
2019-03-09T16:44:43.828Z,1002.55
2019-03-09T16:50:43.750Z,1002.49
2019-03-09T16:56:43.792Z,1002.39
2019-03-09T17:02:43.841Z,1002.36
2019-03-09T17:08:43.690Z,1002.45
2019-03-09T17:14:43.717Z,1002.46
2019-03-09T17:20:43.718Z,1002.65
2019-03-09T17:26:44.761Z,1002.76
2019-03-09T17:32:43.705Z,1002.79
2019-03-09T17:38:43.727Z,1003.03
2019-03-09T17:44:43.716Z,1003.05
2019-03-09T17:50:43.725Z,1003.20
2019-03-09T17:56:43.762Z,1003.34
2019-03-09T18:02:43.738Z,1003.72
2019-03-09T18:08:43.761Z,1004.01
2019-03-09T18:14:43.758Z,1004.13
2019-03-09T18:20:43.746Z,1004.34
2019-03-09T18:26:43.747Z,1004.24
2019-03-09T18:32:43.763Z,1004.52
2019-03-09T18:38:43.777Z,1004.47
2019-03-09T18:44:43.771Z,1004.72
2019-03-09T18:50:43.798Z,1004.64
2019-03-09T18:56:43.787Z,1004.75
2019-03-09T19:02:43.799Z,1004.92
2019-03-09T19:08:43.842Z,1005.28
2019-03-09T19:14:44.001Z,1005.12
2019-03-09T19:20:43.809Z,1005.07
2019-03-09T19:26:43.987Z,1005.18
2019-03-09T19:32:45.256Z,1005.22
2019-03-09T19:38:43.843Z,1005.33
2019-03-09T19:44:43.835Z,1005.44
2019-03-09T19:50:43.821Z,1005.55
2019-03-09T19:56:44.162Z,1005.66
2019-03-09T20:02:43.847Z,1005.61
2019-03-09T20:08:43.984Z,1005.67
2019-03-09T20:14:44.017Z,1005.56
2019-03-09T20:20:43.885Z,1005.61
2019-03-09T20:26:43.863Z,1005.79
2019-03-09T20:32:43.872Z,1005.89
2019-03-09T20:38:43.904Z,1005.91
2019-03-09T20:44:43.993Z,1005.92
2019-03-09T20:50:44.041Z,1005.86
2019-03-09T20:56:43.889Z,1005.79
2019-03-09T21:02:43.951Z,1005.92
2019-03-09T21:08:44.206Z,1005.90
2019-03-09T21:14:43.946Z,1005.88
2019-03-09T21:20:43.899Z,1005.94
2019-03-09T21:26:43.919Z,1005.93
2019-03-09T21:32:43.975Z,1005.88
2019-03-09T21:38:44.210Z,1005.87
2019-03-09T21:44:43.937Z,1005.81
2019-03-09T21:50:43.999Z,1005.89
2019-03-09T21:56:43.928Z,1005.91
2019-03-09T22:02:44.963Z,1005.98
2019-03-09T22:08:44.415Z,1006.09
2019-03-09T22:14:44.181Z,1006.08
2019-03-09T22:20:43.957Z,1006.08
2019-03-09T22:26:43.930Z,1005.99
2019-03-09T22:32:43.960Z,1005.92
2019-03-09T22:38:44.004Z,1005.83
2019-03-09T22:44:43.972Z,1005.86
2019-03-09T22:50:43.983Z,1005.89
2019-03-09T22:56:43.937Z,1005.82
2019-03-09T23:02:45.001Z,1005.77
2019-03-09T23:08:44.245Z,1005.76
2019-03-09T23:14:43.994Z,1005.77
2019-03-09T23:20:44.073Z,1005.73
2019-03-09T23:26:43.994Z,1005.63
2019-03-09T23:32:44.018Z,1005.41
2019-03-09T23:38:44.037Z,1005.29
2019-03-09T23:44:44.014Z,1005.24
2019-03-09T23:50:44.097Z,1004.99
2019-03-09T23:56:44.170Z,1004.84
